sensor_id;sensor_type;location;lat;lon;timestamp;P1;durP1;ratioP1;P2;durP2;ratioP2
37299;SDS011;23184;51.902;12.836;2024-02-04T00:00:14;13.82;;;3.25;;
37299;SDS011;23184;51.902;12.836;2024-02-04T00:02:40;10.40;;;2.83;;
37299;SDS011;23184;51.902;12.836;2024-02-04T00:05:05;9.25;;;2.30;;
37299;SDS011;23184;51.902;12.836;2024-02-04T00:07:31;9.18;;;2.60;;
37299;SDS011;23184;51.902;12.836;2024-02-04T00:09:56;12.00;;;3.17;;
37299;SDS011;23184;51.902;12.836;2024-02-04T00:12:22;7.10;;;2.45;;
37299;SDS011;23184;51.902;12.836;2024-02-04T00:14:47;6.20;;;2.05;;
37299;SDS011;23184;51.902;12.836;2024-02-04T00:17:16;8.13;;;2.17;;
37299;SDS011;23184;51.902;12.836;2024-02-04T00:19:42;11.30;;;2.20;;
37299;SDS011;23184;51.902;12.836;2024-02-04T00:22:08;7.20;;;2.40;;
37299;SDS011;23184;51.902;12.836;2024-02-04T00:24:33;10.32;;;2.40;;
37299;SDS011;23184;51.902;12.836;2024-02-04T00:26:59;11.00;;;2.70;;
37299;SDS011;23184;51.902;12.836;2024-02-04T00:29:24;11.98;;;2.42;;
37299;SDS011;23184;51.902;12.836;2024-02-04T00:31:50;6.25;;;1.80;;
37299;SDS011;23184;51.902;12.836;2024-02-04T00:34:15;7.95;;;1.88;;
37299;SDS011;23184;51.902;12.836;2024-02-04T00:36:41;5.93;;;1.90;;
37299;SDS011;23184;51.902;12.836;2024-02-04T00:39:07;12.77;;;2.67;;
37299;SDS011;23184;51.902;12.836;2024-02-04T00:41:33;6.25;;;1.98;;
37299;SDS011;23184;51.902;12.836;2024-02-04T00:43:59;13.85;;;2.15;;
37299;SDS011;23184;51.902;12.836;2024-02-04T00:46:25;10.70;;;2.10;;
37299;SDS011;23184;51.902;12.836;2024-02-04T00:48:51;10.73;;;2.10;;
37299;SDS011;23184;51.902;12.836;2024-02-04T00:51:16;9.93;;;2.10;;
37299;SDS011;23184;51.902;12.836;2024-02-04T00:53:42;6.25;;;2.03;;
37299;SDS011;23184;51.902;12.836;2024-02-04T00:56:08;9.48;;;2.22;;
37299;SDS011;23184;51.902;12.836;2024-02-04T00:58:36;15.40;;;1.92;;
37299;SDS011;23184;51.902;12.836;2024-02-04T01:01:01;10.20;;;2.13;;
37299;SDS011;23184;51.902;12.836;2024-02-04T01:03:27;12.38;;;2.80;;
37299;SDS011;23184;51.902;12.836;2024-02-04T01:05:54;14.07;;;2.50;;
37299;SDS011;23184;51.902;12.836;2024-02-04T01:08:20;12.15;;;2.95;;
37299;SDS011;23184;51.902;12.836;2024-02-04T01:10:46;12.02;;;2.63;;
37299;SDS011;23184;51.902;12.836;2024-02-04T01:13:12;8.23;;;2.28;;
37299;SDS011;23184;51.902;12.836;2024-02-04T01:15:37;13.57;;;3.10;;
37299;SDS011;23184;51.902;12.836;2024-02-04T01:18:03;8.07;;;2.80;;
37299;SDS011;23184;51.902;12.836;2024-02-04T01:20:28;12.90;;;3.17;;
37299;SDS011;23184;51.902;12.836;2024-02-04T01:22:54;14.00;;;3.15;;
37299;SDS011;23184;51.902;12.836;2024-02-04T01:25:19;13.75;;;3.05;;
37299;SDS011;23184;51.902;12.836;2024-02-04T01:27:45;14.52;;;3.47;;
37299;SDS011;23184;51.902;12.836;2024-02-04T01:30:10;11.73;;;3.45;;
37299;SDS011;23184;51.902;12.836;2024-02-04T01:32:36;11.13;;;3.03;;
37299;SDS011;23184;51.902;12.836;2024-02-04T01:35:01;15.70;;;3.83;;
37299;SDS011;23184;51.902;12.836;2024-02-04T01:37:27;11.93;;;3.92;;
37299;SDS011;23184;51.902;12.836;2024-02-04T01:39:53;13.82;;;3.67;;
37299;SDS011;23184;51.902;12.836;2024-02-04T01:42:18;10.60;;;3.55;;
37299;SDS011;23184;51.902;12.836;2024-02-04T01:44:44;10.40;;;3.40;;
37299;SDS011;23184;51.902;12.836;2024-02-04T01:47:09;7.30;;;3.67;;
37299;SDS011;23184;51.902;12.836;2024-02-04T01:49:35;6.65;;;3.03;;
37299;SDS011;23184;51.902;12.836;2024-02-04T01:52:01;10.73;;;3.40;;
37299;SDS011;23184;51.902;12.836;2024-02-04T01:54:27;13.32;;;3.70;;
37299;SDS011;23184;51.902;12.836;2024-02-04T01:56:55;10.88;;;3.38;;
37299;SDS011;23184;51.902;12.836;2024-02-04T01:59:26;12.05;;;4.00;;
37299;SDS011;23184;51.902;12.836;2024-02-04T02:01:55;13.15;;;4.25;;
37299;SDS011;23184;51.902;12.836;2024-02-04T02:04:27;12.88;;;4.95;;
37299;SDS011;23184;51.902;12.836;2024-02-04T02:06:53;12.75;;;4.75;;
37299;SDS011;23184;51.902;12.836;2024-02-04T02:09:19;13.05;;;4.07;;
37299;SDS011;23184;51.902;12.836;2024-02-04T02:11:53;11.30;;;4.35;;
37299;SDS011;23184;51.902;12.836;2024-02-04T02:14:26;22.65;;;5.63;;
37299;SDS011;23184;51.902;12.836;2024-02-04T02:16:56;18.73;;;5.20;;
37299;SDS011;23184;51.902;12.836;2024-02-04T02:25:12;16.02;;;5.00;;
37299;SDS011;23184;51.902;12.836;2024-02-04T02:27:45;11.07;;;4.60;;
37299;SDS011;23184;51.902;12.836;2024-02-04T02:30:12;12.18;;;4.40;;
37299;SDS011;23184;51.902;12.836;2024-02-04T02:32:38;11.70;;;5.15;;
37299;SDS011;23184;51.902;12.836;2024-02-04T02:35:03;9.82;;;3.30;;
37299;SDS011;23184;51.902;12.836;2024-02-04T02:40:23;9.95;;;3.70;;
37299;SDS011;23184;51.902;12.836;2024-02-04T02:42:57;15.27;;;4.13;;
37299;SDS011;23184;51.902;12.836;2024-02-04T02:45:26;6.97;;;2.58;;
37299;SDS011;23184;51.902;12.836;2024-02-04T02:47:52;6.32;;;2.63;;
37299;SDS011;23184;51.902;12.836;2024-02-04T02:50:20;9.38;;;2.42;;
37299;SDS011;23184;51.902;12.836;2024-02-04T02:52:45;10.02;;;3.08;;
37299;SDS011;23184;51.902;12.836;2024-02-04T02:55:11;8.05;;;2.83;;
37299;SDS011;23184;51.902;12.836;2024-02-04T02:57:37;10.38;;;2.95;;
37299;SDS011;23184;51.902;12.836;2024-02-04T03:00:02;7.88;;;2.55;;
37299;SDS011;23184;51.902;12.836;2024-02-04T03:02:30;9.23;;;2.67;;
37299;SDS011;23184;51.902;12.836;2024-02-04T03:04:56;13.57;;;3.15;;
37299;SDS011;23184;51.902;12.836;2024-02-04T03:07:21;9.63;;;3.10;;
37299;SDS011;23184;51.902;12.836;2024-02-04T03:09:47;7.95;;;3.15;;
37299;SDS011;23184;51.902;12.836;2024-02-04T03:12:13;9.85;;;3.55;;
37299;SDS011;23184;51.902;12.836;2024-02-04T03:14:38;8.85;;;3.30;;
37299;SDS011;23184;51.902;12.836;2024-02-04T03:17:03;8.60;;;3.35;;
37299;SDS011;23184;51.902;12.836;2024-02-04T03:19:29;9.75;;;3.33;;
37299;SDS011;23184;51.902;12.836;2024-02-04T03:21:54;11.93;;;3.55;;
37299;SDS011;23184;51.902;12.836;2024-02-04T03:24:20;9.93;;;3.15;;
37299;SDS011;23184;51.902;12.836;2024-02-04T03:26:45;7.00;;;2.88;;
37299;SDS011;23184;51.902;12.836;2024-02-04T03:29:11;10.05;;;3.20;;
37299;SDS011;23184;51.902;12.836;2024-02-04T03:31:36;5.32;;;2.97;;
37299;SDS011;23184;51.902;12.836;2024-02-04T03:34:02;9.02;;;2.70;;
37299;SDS011;23184;51.902;12.836;2024-02-04T03:36:27;14.13;;;2.97;;
37299;SDS011;23184;51.902;12.836;2024-02-04T03:38:53;8.32;;;2.42;;
37299;SDS011;23184;51.902;12.836;2024-02-04T03:41:19;9.85;;;3.20;;
37299;SDS011;23184;51.902;12.836;2024-02-04T03:43:44;10.02;;;3.22;;
37299;SDS011;23184;51.902;12.836;2024-02-04T03:46:16;7.20;;;2.80;;
37299;SDS011;23184;51.902;12.836;2024-02-04T03:48:42;8.77;;;2.47;;
37299;SDS011;23184;51.902;12.836;2024-02-04T03:51:08;5.70;;;2.67;;
37299;SDS011;23184;51.902;12.836;2024-02-04T03:53:39;9.43;;;4.20;;
37299;SDS011;23184;51.902;12.836;2024-02-04T03:56:05;8.38;;;2.53;;
37299;SDS011;23184;51.902;12.836;2024-02-04T03:58:32;8.63;;;2.70;;
37299;SDS011;23184;51.902;12.836;2024-02-04T04:00:58;9.25;;;2.58;;
37299;SDS011;23184;51.902;12.836;2024-02-04T04:03:24;6.93;;;2.95;;
37299;SDS011;23184;51.902;12.836;2024-02-04T04:05:49;8.25;;;2.90;;
37299;SDS011;23184;51.902;12.836;2024-02-04T04:08:15;6.53;;;2.65;;
37299;SDS011;23184;51.902;12.836;2024-02-04T04:10:42;10.52;;;2.80;;
37299;SDS011;23184;51.902;12.836;2024-02-04T04:13:08;10.35;;;2.70;;
37299;SDS011;23184;51.902;12.836;2024-02-04T04:15:33;15.38;;;3.20;;
37299;SDS011;23184;51.902;12.836;2024-02-04T04:17:59;11.38;;;2.95;;
37299;SDS011;23184;51.902;12.836;2024-02-04T04:20:24;8.77;;;2.53;;
37299;SDS011;23184;51.902;12.836;2024-02-04T04:22:50;5.65;;;2.83;;
37299;SDS011;23184;51.902;12.836;2024-02-04T04:25:15;7.65;;;2.47;;
37299;SDS011;23184;51.902;12.836;2024-02-04T04:27:42;11.60;;;3.33;;
37299;SDS011;23184;51.902;12.836;2024-02-04T04:30:07;7.38;;;2.38;;
37299;SDS011;23184;51.902;12.836;2024-02-04T04:32:33;10.55;;;2.95;;
37299;SDS011;23184;51.902;12.836;2024-02-04T04:34:59;8.38;;;3.22;;
37299;SDS011;23184;51.902;12.836;2024-02-04T04:37:25;5.32;;;2.72;;
37299;SDS011;23184;51.902;12.836;2024-02-04T04:39:50;8.25;;;3.60;;
37299;SDS011;23184;51.902;12.836;2024-02-04T04:42:15;8.85;;;2.75;;
37299;SDS011;23184;51.902;12.836;2024-02-04T04:44:41;8.10;;;2.90;;
37299;SDS011;23184;51.902;12.836;2024-02-04T04:47:06;6.88;;;2.85;;
37299;SDS011;23184;51.902;12.836;2024-02-04T04:49:32;10.15;;;3.10;;
37299;SDS011;23184;51.902;12.836;2024-02-04T04:51:57;8.95;;;3.55;;
37299;SDS011;23184;51.902;12.836;2024-02-04T04:54:23;11.05;;;3.72;;
37299;SDS011;23184;51.902;12.836;2024-02-04T04:56:48;13.73;;;6.40;;
37299;SDS011;23184;51.902;12.836;2024-02-04T04:59:17;14.45;;;5.90;;
37299;SDS011;23184;51.902;12.836;2024-02-04T05:01:49;16.92;;;5.65;;
37299;SDS011;23184;51.902;12.836;2024-02-04T05:04:17;15.75;;;6.68;;
37299;SDS011;23184;51.902;12.836;2024-02-04T05:06:43;15.27;;;6.50;;
37299;SDS011;23184;51.902;12.836;2024-02-04T05:09:09;14.98;;;6.68;;
37299;SDS011;23184;51.902;12.836;2024-02-04T05:11:35;13.02;;;5.55;;
37299;SDS011;23184;51.902;12.836;2024-02-04T05:14:00;16.60;;;6.03;;
37299;SDS011;23184;51.902;12.836;2024-02-04T05:16:26;12.73;;;4.90;;
37299;SDS011;23184;51.902;12.836;2024-02-04T05:18:51;12.18;;;4.68;;
37299;SDS011;23184;51.902;12.836;2024-02-04T05:21:17;11.25;;;3.92;;
37299;SDS011;23184;51.902;12.836;2024-02-04T05:23:42;12.07;;;3.63;;
37299;SDS011;23184;51.902;12.836;2024-02-04T05:26:08;12.45;;;3.90;;
37299;SDS011;23184;51.902;12.836;2024-02-04T05:28:33;8.27;;;3.80;;
37299;SDS011;23184;51.902;12.836;2024-02-04T05:30:59;16.83;;;4.40;;
37299;SDS011;23184;51.902;12.836;2024-02-04T05:33:27;18.35;;;5.47;;
37299;SDS011;23184;51.902;12.836;2024-02-04T05:35:52;16.38;;;5.00;;
37299;SDS011;23184;51.902;12.836;2024-02-04T05:38:18;14.27;;;5.55;;
37299;SDS011;23184;51.902;12.836;2024-02-04T05:40:43;15.65;;;5.47;;
37299;SDS011;23184;51.902;12.836;2024-02-04T05:43:09;22.40;;;6.90;;
37299;SDS011;23184;51.902;12.836;2024-02-04T05:45:36;13.27;;;5.15;;
37299;SDS011;23184;51.902;12.836;2024-02-04T05:48:02;13.90;;;5.80;;
37299;SDS011;23184;51.902;12.836;2024-02-04T05:50:28;14.75;;;6.13;;
37299;SDS011;23184;51.902;12.836;2024-02-04T05:52:53;17.58;;;6.47;;
37299;SDS011;23184;51.902;12.836;2024-02-04T05:55:19;21.80;;;7.88;;
37299;SDS011;23184;51.902;12.836;2024-02-04T05:57:45;14.43;;;6.70;;
37299;SDS011;23184;51.902;12.836;2024-02-04T06:00:10;18.00;;;8.02;;
37299;SDS011;23184;51.902;12.836;2024-02-04T06:02:37;25.08;;;9.95;;
37299;SDS011;23184;51.902;12.836;2024-02-04T06:05:02;26.67;;;10.73;;
37299;SDS011;23184;51.902;12.836;2024-02-04T06:07:28;20.80;;;9.57;;
37299;SDS011;23184;51.902;12.836;2024-02-04T06:09:54;21.58;;;9.20;;
37299;SDS011;23184;51.902;12.836;2024-02-04T06:12:24;17.05;;;7.25;;
37299;SDS011;23184;51.902;12.836;2024-02-04T06:14:50;14.90;;;7.30;;
37299;SDS011;23184;51.902;12.836;2024-02-04T06:17:15;11.68;;;5.72;;
37299;SDS011;23184;51.902;12.836;2024-02-04T06:19:41;16.75;;;5.85;;
37299;SDS011;23184;51.902;12.836;2024-02-04T06:22:06;17.63;;;5.88;;
37299;SDS011;23184;51.902;12.836;2024-02-04T06:24:32;12.00;;;5.60;;
37299;SDS011;23184;51.902;12.836;2024-02-04T06:26:57;13.27;;;6.05;;
37299;SDS011;23184;51.902;12.836;2024-02-04T06:29:23;14.93;;;6.05;;
37299;SDS011;23184;51.902;12.836;2024-02-04T06:31:48;10.07;;;5.10;;
37299;SDS011;23184;51.902;12.836;2024-02-04T06:34:14;15.15;;;5.82;;
37299;SDS011;23184;51.902;12.836;2024-02-04T06:36:43;13.82;;;5.93;;
37299;SDS011;23184;51.902;12.836;2024-02-04T06:39:11;18.35;;;7.13;;
37299;SDS011;23184;51.902;12.836;2024-02-04T06:41:37;17.30;;;6.32;;
37299;SDS011;23184;51.902;12.836;2024-02-04T06:44:03;14.80;;;6.35;;
37299;SDS011;23184;51.902;12.836;2024-02-04T06:46:29;11.52;;;6.70;;
37299;SDS011;23184;51.902;12.836;2024-02-04T06:48:55;14.18;;;6.70;;
37299;SDS011;23184;51.902;12.836;2024-02-04T06:51:21;14.55;;;7.43;;
37299;SDS011;23184;51.902;12.836;2024-02-04T06:53:46;15.98;;;6.93;;
37299;SDS011;23184;51.902;12.836;2024-02-04T06:56:12;21.58;;;8.20;;
37299;SDS011;23184;51.902;12.836;2024-02-04T06:58:38;19.75;;;8.13;;
37299;SDS011;23184;51.902;12.836;2024-02-04T07:01:04;17.48;;;8.98;;
37299;SDS011;23184;51.902;12.836;2024-02-04T07:03:29;16.40;;;8.02;;
37299;SDS011;23184;51.902;12.836;2024-02-04T07:05:55;18.27;;;8.70;;
37299;SDS011;23184;51.902;12.836;2024-02-04T07:08:21;19.25;;;8.13;;
37299;SDS011;23184;51.902;12.836;2024-02-04T07:10:46;15.30;;;7.55;;
37299;SDS011;23184;51.902;12.836;2024-02-04T07:13:12;16.88;;;8.30;;
37299;SDS011;23184;51.902;12.836;2024-02-04T07:15:38;18.85;;;9.10;;
37299;SDS011;23184;51.902;12.836;2024-02-04T07:18:03;17.55;;;8.63;;
37299;SDS011;23184;51.902;12.836;2024-02-04T07:20:29;18.88;;;8.70;;
37299;SDS011;23184;51.902;12.836;2024-02-04T07:22:55;17.75;;;9.35;;
37299;SDS011;23184;51.902;12.836;2024-02-04T07:25:20;16.98;;;8.75;;
37299;SDS011;23184;51.902;12.836;2024-02-04T07:27:47;24.30;;;9.57;;
37299;SDS011;23184;51.902;12.836;2024-02-04T07:30:13;19.02;;;8.90;;
37299;SDS011;23184;51.902;12.836;2024-02-04T07:32:38;17.42;;;8.85;;
37299;SDS011;23184;51.902;12.836;2024-02-04T07:35:04;21.02;;;10.20;;
37299;SDS011;23184;51.902;12.836;2024-02-04T07:37:29;21.60;;;10.55;;
37299;SDS011;23184;51.902;12.836;2024-02-04T07:39:55;20.33;;;11.07;;
37299;SDS011;23184;51.902;12.836;2024-02-04T07:42:20;20.52;;;10.70;;
37299;SDS011;23184;51.902;12.836;2024-02-04T07:44:46;20.33;;;9.98;;
37299;SDS011;23184;51.902;12.836;2024-02-04T07:47:12;18.10;;;9.73;;
37299;SDS011;23184;51.902;12.836;2024-02-04T07:49:38;21.08;;;9.48;;
37299;SDS011;23184;51.902;12.836;2024-02-04T07:52:04;20.17;;;9.80;;
37299;SDS011;23184;51.902;12.836;2024-02-04T07:54:30;18.48;;;10.90;;
37299;SDS011;23184;51.902;12.836;2024-02-04T07:56:55;19.90;;;10.38;;
37299;SDS011;23184;51.902;12.836;2024-02-04T07:59:21;22.20;;;9.10;;
37299;SDS011;23184;51.902;12.836;2024-02-04T08:01:47;23.55;;;10.98;;
37299;SDS011;23184;51.902;12.836;2024-02-04T08:04:12;17.70;;;9.73;;
37299;SDS011;23184;51.902;12.836;2024-02-04T08:06:38;22.92;;;9.75;;
37299;SDS011;23184;51.902;12.836;2024-02-04T08:09:03;20.00;;;10.23;;
37299;SDS011;23184;51.902;12.836;2024-02-04T08:11:29;17.92;;;10.10;;
37299;SDS011;23184;51.902;12.836;2024-02-04T08:13:54;19.30;;;9.18;;
37299;SDS011;23184;51.902;12.836;2024-02-04T08:16:20;19.42;;;10.07;;
37299;SDS011;23184;51.902;12.836;2024-02-04T08:18:46;21.17;;;10.63;;
37299;SDS011;23184;51.902;12.836;2024-02-04T08:21:12;22.08;;;10.85;;
37299;SDS011;23184;51.902;12.836;2024-02-04T08:23:37;18.98;;;9.98;;
37299;SDS011;23184;51.902;12.836;2024-02-04T08:26:04;19.90;;;10.63;;
37299;SDS011;23184;51.902;12.836;2024-02-04T08:28:30;25.50;;;10.40;;
37299;SDS011;23184;51.902;12.836;2024-02-04T08:30:56;22.45;;;9.77;;
37299;SDS011;23184;51.902;12.836;2024-02-04T08:33:21;21.15;;;9.68;;
37299;SDS011;23184;51.902;12.836;2024-02-04T08:35:47;21.38;;;10.52;;
37299;SDS011;23184;51.902;12.836;2024-02-04T08:38:13;20.17;;;10.43;;
37299;SDS011;23184;51.902;12.836;2024-02-04T08:40:39;20.73;;;10.40;;
37299;SDS011;23184;51.902;12.836;2024-02-04T08:43:04;20.75;;;10.02;;
37299;SDS011;23184;51.902;12.836;2024-02-04T08:45:30;22.40;;;10.93;;
37299;SDS011;23184;51.902;12.836;2024-02-04T08:47:55;19.45;;;10.93;;
37299;SDS011;23184;51.902;12.836;2024-02-04T08:50:21;16.42;;;9.13;;
37299;SDS011;23184;51.902;12.836;2024-02-04T08:52:46;19.17;;;9.93;;
37299;SDS011;23184;51.902;12.836;2024-02-04T08:55:12;17.08;;;9.85;;
37299;SDS011;23184;51.902;12.836;2024-02-04T08:57:38;16.70;;;9.43;;
37299;SDS011;23184;51.902;12.836;2024-02-04T09:00:04;20.48;;;10.27;;
37299;SDS011;23184;51.902;12.836;2024-02-04T09:02:33;17.33;;;9.93;;
37299;SDS011;23184;51.902;12.836;2024-02-04T09:05:02;16.45;;;9.60;;
37299;SDS011;23184;51.902;12.836;2024-02-04T09:07:27;17.98;;;9.18;;
37299;SDS011;23184;51.902;12.836;2024-02-04T09:09:53;15.55;;;8.65;;
37299;SDS011;23184;51.902;12.836;2024-02-04T09:12:18;19.85;;;9.63;;
37299;SDS011;23184;51.902;12.836;2024-02-04T09:14:44;14.30;;;7.55;;
37299;SDS011;23184;51.902;12.836;2024-02-04T09:17:09;12.48;;;6.97;;
37299;SDS011;23184;51.902;12.836;2024-02-04T09:19:35;12.23;;;7.38;;
37299;SDS011;23184;51.902;12.836;2024-02-04T09:22:01;10.65;;;6.63;;
37299;SDS011;23184;51.902;12.836;2024-02-04T09:24:27;17.10;;;7.00;;
37299;SDS011;23184;51.902;12.836;2024-02-04T09:26:52;10.07;;;5.30;;
37299;SDS011;23184;51.902;12.836;2024-02-04T09:29:18;7.72;;;4.55;;
37299;SDS011;23184;51.902;12.836;2024-02-04T09:31:45;7.43;;;4.20;;
37299;SDS011;23184;51.902;12.836;2024-02-04T09:34:11;10.73;;;3.95;;
37299;SDS011;23184;51.902;12.836;2024-02-04T09:36:36;9.45;;;4.32;;
37299;SDS011;23184;51.902;12.836;2024-02-04T09:39:02;6.88;;;3.40;;
37299;SDS011;23184;51.902;12.836;2024-02-04T09:41:28;7.32;;;3.60;;
37299;SDS011;23184;51.902;12.836;2024-02-04T09:43:54;8.23;;;3.70;;
37299;SDS011;23184;51.902;12.836;2024-02-04T09:46:21;10.13;;;3.83;;
37299;SDS011;23184;51.902;12.836;2024-02-04T09:48:46;8.02;;;3.55;;
37299;SDS011;23184;51.902;12.836;2024-02-04T09:51:14;5.82;;;3.08;;
37299;SDS011;23184;51.902;12.836;2024-02-04T09:53:43;8.35;;;2.97;;
37299;SDS011;23184;51.902;12.836;2024-02-04T09:56:09;7.60;;;3.40;;
37299;SDS011;23184;51.902;12.836;2024-02-04T09:58:36;11.48;;;3.20;;
37299;SDS011;23184;51.902;12.836;2024-02-04T10:01:02;4.78;;;3.10;;
37299;SDS011;23184;51.902;12.836;2024-02-04T10:03:33;6.72;;;3.40;;
37299;SDS011;23184;51.902;12.836;2024-02-04T10:05:59;10.90;;;3.92;;
37299;SDS011;23184;51.902;12.836;2024-02-04T10:08:25;5.70;;;3.70;;
37299;SDS011;23184;51.902;12.836;2024-02-04T10:10:51;5.75;;;3.22;;
37299;SDS011;23184;51.902;12.836;2024-02-04T10:13:16;6.85;;;3.35;;
37299;SDS011;23184;51.902;12.836;2024-02-04T10:15:42;5.65;;;2.88;;
37299;SDS011;23184;51.902;12.836;2024-02-04T10:18:08;6.60;;;2.75;;
37299;SDS011;23184;51.902;12.836;2024-02-04T10:20:34;4.35;;;2.17;;
37299;SDS011;23184;51.902;12.836;2024-02-04T10:23:00;5.90;;;2.65;;
37299;SDS011;23184;51.902;12.836;2024-02-04T10:25:26;4.68;;;2.28;;
37299;SDS011;23184;51.902;12.836;2024-02-04T10:27:52;5.68;;;2.58;;
37299;SDS011;23184;51.902;12.836;2024-02-04T10:30:20;5.38;;;2.60;;
37299;SDS011;23184;51.902;12.836;2024-02-04T10:32:50;3.97;;;2.00;;
37299;SDS011;23184;51.902;12.836;2024-02-04T10:35:16;4.13;;;1.77;;
37299;SDS011;23184;51.902;12.836;2024-02-04T10:37:44;3.55;;;2.17;;
37299;SDS011;23184;51.902;12.836;2024-02-04T10:40:10;3.58;;;1.75;;
37299;SDS011;23184;51.902;12.836;2024-02-04T10:42:36;5.70;;;2.63;;
37299;SDS011;23184;51.902;12.836;2024-02-04T10:45:04;5.55;;;1.92;;
37299;SDS011;23184;51.902;12.836;2024-02-04T10:47:32;3.95;;;2.08;;
37299;SDS011;23184;51.902;12.836;2024-02-04T10:50:02;6.15;;;2.63;;
37299;SDS011;23184;51.902;12.836;2024-02-04T10:52:28;6.05;;;3.08;;
37299;SDS011;23184;51.902;12.836;2024-02-04T10:55:07;8.23;;;2.78;;
37299;SDS011;23184;51.902;12.836;2024-02-04T10:57:37;3.85;;;1.92;;
37299;SDS011;23184;51.902;12.836;2024-02-04T11:00:03;2.08;;;1.40;;
37299;SDS011;23184;51.902;12.836;2024-02-04T11:02:33;4.80;;;1.42;;
37299;SDS011;23184;51.902;12.836;2024-02-04T11:05:01;4.75;;;1.38;;
37299;SDS011;23184;51.902;12.836;2024-02-04T11:07:29;4.03;;;1.23;;
37299;SDS011;23184;51.902;12.836;2024-02-04T11:09:57;1.88;;;1.10;;
37299;SDS011;23184;51.902;12.836;2024-02-04T11:12:23;3.83;;;1.30;;
37299;SDS011;23184;51.902;12.836;2024-02-04T11:14:52;4.40;;;1.10;;
37299;SDS011;23184;51.902;12.836;2024-02-04T11:17:31;6.90;;;2.15;;
37299;SDS011;23184;51.902;12.836;2024-02-04T11:25:48;8.52;;;1.77;;
37299;SDS011;23184;51.902;12.836;2024-02-04T11:28:18;8.65;;;1.92;;
37299;SDS011;23184;51.902;12.836;2024-02-04T11:30:46;7.13;;;2.45;;
37299;SDS011;23184;51.902;12.836;2024-02-04T11:33:13;6.28;;;1.77;;
37299;SDS011;23184;51.902;12.836;2024-02-04T11:35:43;4.07;;;1.30;;
37299;SDS011;23184;51.902;12.836;2024-02-04T11:38:09;3.60;;;1.02;;
37299;SDS011;23184;51.902;12.836;2024-02-04T11:40:36;8.50;;;1.60;;
37299;SDS011;23184;51.902;12.836;2024-02-04T11:43:12;6.53;;;2.13;;
37299;SDS011;23184;51.902;12.836;2024-02-04T11:45:39;9.82;;;2.08;;
37299;SDS011;23184;51.902;12.836;2024-02-04T11:48:07;4.18;;;1.10;;
37299;SDS011;23184;51.902;12.836;2024-02-04T11:50:33;8.50;;;1.92;;
37299;SDS011;23184;51.902;12.836;2024-02-04T11:53:06;5.90;;;1.00;;
37299;SDS011;23184;51.902;12.836;2024-02-04T11:55:36;6.18;;;1.38;;
37299;SDS011;23184;51.902;12.836;2024-02-04T11:58:04;9.23;;;1.83;;
37299;SDS011;23184;51.902;12.836;2024-02-04T12:00:34;5.70;;;1.55;;
37299;SDS011;23184;51.902;12.836;2024-02-04T12:03:04;4.35;;;1.92;;
37299;SDS011;23184;51.902;12.836;2024-02-04T12:05:33;7.10;;;1.40;;
37299;SDS011;23184;51.902;12.836;2024-02-04T12:08:01;7.35;;;1.50;;
37299;SDS011;23184;51.902;12.836;2024-02-04T12:10:30;8.38;;;2.72;;
37299;SDS011;23184;51.902;12.836;2024-02-04T12:12:58;9.18;;;1.83;;
37299;SDS011;23184;51.902;12.836;2024-02-04T12:15:24;6.18;;;1.20;;
37299;SDS011;23184;51.902;12.836;2024-02-04T12:17:50;7.18;;;1.23;;
37299;SDS011;23184;51.902;12.836;2024-02-04T12:20:16;9.35;;;1.65;;
37299;SDS011;23184;51.902;12.836;2024-02-04T12:22:41;8.40;;;2.08;;
37299;SDS011;23184;51.902;12.836;2024-02-04T12:25:07;7.57;;;1.52;;
37299;SDS011;23184;51.902;12.836;2024-02-04T12:27:33;5.13;;;1.58;;
37299;SDS011;23184;51.902;12.836;2024-02-04T12:29:59;5.85;;;1.60;;
37299;SDS011;23184;51.902;12.836;2024-02-04T12:32:25;7.15;;;2.08;;
37299;SDS011;23184;51.902;12.836;2024-02-04T12:34:51;10.25;;;2.10;;
37299;SDS011;23184;51.902;12.836;2024-02-04T12:37:19;8.20;;;2.03;;
37299;SDS011;23184;51.902;12.836;2024-02-04T12:39:45;9.10;;;2.33;;
37299;SDS011;23184;51.902;12.836;2024-02-04T12:42:14;9.10;;;2.75;;
37299;SDS011;23184;51.902;12.836;2024-02-04T12:44:43;9.95;;;1.98;;
37299;SDS011;23184;51.902;12.836;2024-02-04T12:47:09;6.85;;;1.98;;
37299;SDS011;23184;51.902;12.836;2024-02-04T12:49:35;7.53;;;2.05;;
37299;SDS011;23184;51.902;12.836;2024-02-04T12:52:04;8.00;;;2.30;;
37299;SDS011;23184;51.902;12.836;2024-02-04T12:54:30;13.80;;;2.70;;
37299;SDS011;23184;51.902;12.836;2024-02-04T12:56:56;10.23;;;2.42;;
37299;SDS011;23184;51.902;12.836;2024-02-04T12:59:25;6.03;;;1.45;;
37299;SDS011;23184;51.902;12.836;2024-02-04T13:02:06;8.38;;;2.05;;
37299;SDS011;23184;51.902;12.836;2024-02-04T13:04:36;5.18;;;1.63;;
37299;SDS011;23184;51.902;12.836;2024-02-04T13:07:06;10.07;;;2.15;;
37299;SDS011;23184;51.902;12.836;2024-02-04T13:09:32;8.95;;;1.98;;
37299;SDS011;23184;51.902;12.836;2024-02-04T13:12:07;9.02;;;1.98;;
37299;SDS011;23184;51.902;12.836;2024-02-04T13:14:34;8.98;;;3.08;;
37299;SDS011;23184;51.902;12.836;2024-02-04T13:16:59;8.35;;;2.20;;
37299;SDS011;23184;51.902;12.836;2024-02-04T13:19:31;7.32;;;2.00;;
37299;SDS011;23184;51.902;12.836;2024-02-04T13:21:58;6.80;;;1.70;;
37299;SDS011;23184;51.902;12.836;2024-02-04T13:24:23;8.10;;;1.95;;
37299;SDS011;23184;51.902;12.836;2024-02-04T13:26:49;6.97;;;1.80;;
37299;SDS011;23184;51.902;12.836;2024-02-04T13:29:14;4.82;;;1.88;;
37299;SDS011;23184;51.902;12.836;2024-02-04T13:31:40;7.78;;;2.25;;
37299;SDS011;23184;51.902;12.836;2024-02-04T13:34:05;4.97;;;1.83;;
37299;SDS011;23184;51.902;12.836;2024-02-04T13:36:31;11.02;;;1.90;;
37299;SDS011;23184;51.902;12.836;2024-02-04T13:38:57;6.57;;;2.33;;
37299;SDS011;23184;51.902;12.836;2024-02-04T13:41:23;10.38;;;2.10;;
37299;SDS011;23184;51.902;12.836;2024-02-04T13:43:48;11.15;;;2.88;;
37299;SDS011;23184;51.902;12.836;2024-02-04T13:46:15;8.80;;;2.30;;
37299;SDS011;23184;51.902;12.836;2024-02-04T13:48:40;6.55;;;1.85;;
37299;SDS011;23184;51.902;12.836;2024-02-04T13:51:06;7.22;;;1.95;;
37299;SDS011;23184;51.902;12.836;2024-02-04T13:53:32;5.93;;;1.80;;
37299;SDS011;23184;51.902;12.836;2024-02-04T13:55:59;7.60;;;2.00;;
37299;SDS011;23184;51.902;12.836;2024-02-04T13:58:25;8.23;;;1.70;;
37299;SDS011;23184;51.902;12.836;2024-02-04T14:00:51;9.73;;;2.25;;
37299;SDS011;23184;51.902;12.836;2024-02-04T14:03:17;10.85;;;2.35;;
37299;SDS011;23184;51.902;12.836;2024-02-04T14:05:42;12.73;;;2.20;;
37299;SDS011;23184;51.902;12.836;2024-02-04T14:08:08;8.27;;;1.80;;
37299;SDS011;23184;51.902;12.836;2024-02-04T14:10:33;9.85;;;1.80;;
37299;SDS011;23184;51.902;12.836;2024-02-04T14:12:59;5.75;;;1.67;;
37299;SDS011;23184;51.902;12.836;2024-02-04T14:15:24;7.63;;;1.58;;
37299;SDS011;23184;51.902;12.836;2024-02-04T14:17:50;9.48;;;2.40;;
37299;SDS011;23184;51.902;12.836;2024-02-04T14:20:16;6.13;;;1.73;;
37299;SDS011;23184;51.902;12.836;2024-02-04T14:22:42;8.60;;;1.85;;
37299;SDS011;23184;51.902;12.836;2024-02-04T14:25:07;5.38;;;1.38;;
37299;SDS011;23184;51.902;12.836;2024-02-04T14:27:33;4.80;;;1.95;;
37299;SDS011;23184;51.902;12.836;2024-02-04T14:29:58;8.55;;;1.70;;
37299;SDS011;23184;51.902;12.836;2024-02-04T14:32:24;9.43;;;2.50;;
37299;SDS011;23184;51.902;12.836;2024-02-04T14:34:50;10.77;;;2.67;;